createdAt,value
2018-07-02T00:00:25.746Z,14.04
2018-07-02T00:02:54.856Z,14.01
2018-07-02T00:05:24.988Z,14.00
2018-07-02T00:07:54.110Z,13.96
2018-07-02T00:10:23.161Z,13.93
2018-07-02T00:12:52.194Z,13.92
2018-07-02T00:15:21.278Z,13.90
2018-07-02T00:17:50.366Z,13.85
2018-07-02T00:20:19.451Z,13.80
2018-07-02T00:22:48.522Z,13.75
2018-07-02T00:25:17.608Z,13.70
2018-07-02T00:27:46.677Z,13.70
2018-07-02T00:30:15.774Z,13.66
2018-07-02T00:32:45.404Z,13.63
2018-07-02T00:35:15.217Z,13.57
2018-07-02T00:37:44.252Z,13.54
2018-07-02T00:40:13.594Z,13.51
2018-07-02T00:42:43.675Z,13.50
2018-07-02T00:45:12.896Z,13.49
2018-07-02T00:47:42.055Z,13.46
2018-07-02T00:50:11.190Z,13.42
2018-07-02T00:52:40.227Z,13.39
2018-07-02T00:55:09.285Z,13.35
2018-07-02T00:57:38.357Z,13.36
2018-07-02T01:00:15.026Z,13.34
2018-07-02T01:02:44.424Z,13.31
2018-07-02T01:05:13.847Z,13.28
2018-07-02T01:07:44.209Z,13.26
2018-07-02T01:10:13.485Z,13.22
2018-07-02T01:12:42.573Z,13.19
2018-07-02T01:15:11.689Z,13.16
2018-07-02T01:17:40.808Z,13.15
2018-07-02T01:20:09.920Z,13.13
2018-07-02T01:22:39.074Z,13.09
2018-07-02T01:25:08.320Z,13.04
2018-07-02T01:27:37.395Z,12.99
2018-07-02T01:30:06.836Z,12.96
2018-07-02T01:32:35.905Z,12.92
2018-07-02T01:35:04.956Z,12.84
2018-07-02T01:37:34.061Z,12.82
2018-07-02T01:40:03.202Z,12.80
2018-07-02T01:42:32.318Z,12.77
2018-07-02T01:45:01.396Z,12.74
2018-07-02T01:47:30.499Z,12.70
2018-07-02T01:49:59.563Z,12.68
2018-07-02T01:52:28.623Z,12.70
2018-07-02T01:54:57.731Z,12.65
2018-07-02T01:57:26.806Z,12.62
2018-07-02T01:59:55.897Z,12.59
2018-07-02T02:02:25.023Z,12.57
2018-07-02T02:04:54.099Z,12.56
2018-07-02T02:07:23.752Z,12.54
2018-07-02T02:09:52.856Z,12.51
2018-07-02T02:12:22.062Z,12.47
2018-07-02T02:14:51.390Z,12.43
2018-07-02T02:17:21.052Z,12.41
2018-07-02T02:19:50.154Z,12.41
2018-07-02T02:22:19.212Z,12.39
2018-07-02T02:24:48.266Z,12.34
2018-07-02T02:27:17.484Z,12.27
2018-07-02T02:29:46.736Z,12.23
2018-07-02T02:32:16.604Z,12.21
2018-07-02T02:54:05.768Z,12.18
2018-07-02T02:56:34.820Z,12.05
2018-07-02T02:59:03.896Z,12.02
2018-07-02T03:01:33.104Z,11.99
2018-07-02T03:04:02.322Z,11.99
2018-07-02T03:06:31.390Z,11.98
2018-07-02T03:09:00.451Z,11.97
2018-07-02T03:11:29.526Z,11.95
2018-07-02T03:13:58.571Z,11.93
2018-07-02T03:16:27.655Z,11.90
2018-07-02T03:18:56.680Z,11.90
2018-07-02T03:21:25.747Z,11.88
2018-07-02T03:23:54.824Z,11.87
2018-07-02T03:26:23.883Z,11.87
2018-07-02T03:28:53.271Z,11.88
2018-07-02T03:31:22.378Z,11.88
2018-07-02T03:33:51.425Z,11.86
2018-07-02T03:36:20.478Z,11.86
2018-07-02T03:38:49.582Z,11.85
2018-07-02T03:41:18.632Z,11.84
2018-07-02T03:43:48.631Z,11.84
2018-07-02T03:46:18.535Z,11.80
2018-07-02T03:48:48.650Z,11.75
2018-07-02T03:51:18.573Z,11.74
2018-07-02T03:53:48.708Z,11.70
2018-07-02T04:01:10.584Z,11.72
2018-07-02T04:03:39.645Z,11.68
2018-07-02T04:18:41.153Z,11.81
2018-07-02T04:21:10.195Z,11.82
2018-07-02T04:23:39.237Z,11.79
2018-07-02T04:26:08.321Z,11.80
2018-07-02T04:28:37.375Z,11.83
2018-07-02T04:31:06.443Z,11.88
2018-07-02T04:33:35.521Z,11.94
2018-07-02T04:36:04.593Z,11.98
2018-07-02T04:38:33.705Z,12.07
2018-07-02T04:41:02.784Z,12.11
2018-07-02T04:43:31.863Z,12.17
2018-07-02T04:46:00.915Z,12.22
2018-07-02T04:48:30.052Z,12.28
2018-07-02T04:50:59.153Z,12.33
2018-07-02T04:53:28.220Z,12.41
2018-07-02T04:55:57.242Z,12.48
2018-07-02T04:58:26.264Z,12.54
2018-07-02T05:00:55.358Z,12.62
2018-07-02T05:03:24.801Z,12.72
2018-07-02T05:05:53.885Z,12.78
2018-07-02T05:08:23.205Z,12.86
2018-07-02T05:10:52.553Z,12.92
2018-07-02T05:13:21.612Z,12.98
2018-07-02T05:15:50.686Z,13.08
2018-07-02T05:18:20.147Z,13.16
2018-07-02T05:20:49.334Z,13.21
2018-07-02T05:23:19.895Z,13.27
2018-07-02T05:25:49.624Z,13.32
2018-07-02T05:28:19.451Z,13.39
2018-07-02T05:30:49.387Z,13.45
2018-07-02T05:33:19.330Z,13.52
2018-07-02T05:35:49.624Z,13.61
2018-07-02T05:38:19.401Z,13.69
2018-07-02T05:40:49.765Z,13.76
2018-07-02T05:43:50.211Z,13.80
2018-07-02T05:46:19.604Z,13.91
2018-07-02T05:48:49.510Z,13.99
2018-07-02T05:51:19.483Z,14.04
2018-07-02T05:53:49.522Z,14.11
2018-07-02T05:56:19.570Z,14.22
2018-07-02T05:58:49.867Z,14.30
2018-07-02T06:01:21.049Z,14.39
2018-07-02T06:03:50.192Z,14.51
2018-07-02T06:06:20.149Z,14.62
2018-07-02T06:08:50.043Z,14.71
2018-07-02T06:11:19.629Z,14.75
2018-07-02T06:13:50.176Z,14.86
2018-07-02T06:16:20.106Z,14.98
2018-07-02T06:18:49.733Z,15.09
2018-07-02T06:21:20.073Z,15.18
2018-07-02T06:26:25.086Z,15.37
2018-07-02T06:29:24.914Z,15.48
2018-07-02T06:31:54.059Z,15.54
2018-07-02T06:34:23.115Z,15.63
2018-07-02T06:36:52.137Z,15.71
2018-07-02T06:39:21.191Z,15.81
2018-07-02T06:41:50.225Z,15.92
2018-07-02T06:44:20.052Z,15.97
2018-07-02T06:46:49.953Z,16.00
2018-07-02T06:49:19.960Z,16.09
2018-07-02T06:51:49.966Z,16.18
2018-07-02T07:03:59.209Z,16.24
2018-07-02T07:06:29.166Z,16.67
2018-07-02T07:08:58.276Z,16.74
2018-07-02T07:11:27.372Z,16.81
2018-07-02T07:13:56.540Z,16.96
2018-07-02T07:16:25.594Z,17.09
2018-07-02T07:18:55.120Z,17.18
2018-07-02T07:21:24.572Z,17.24
2018-07-02T07:23:53.648Z,17.31
2018-07-02T07:26:22.730Z,17.35
2018-07-02T07:28:51.929Z,17.42
2018-07-02T07:31:20.954Z,17.52
2018-07-02T07:33:50.450Z,17.57
2018-07-02T07:36:20.618Z,17.61
2018-07-02T07:38:50.550Z,17.73
2018-07-02T07:41:20.432Z,17.80
2018-07-02T08:03:09.756Z,17.83
2018-07-02T08:05:42.796Z,18.36
2018-07-02T08:08:11.816Z,18.43
2018-07-02T08:10:41.105Z,18.52
2018-07-02T08:13:10.218Z,18.64
2018-07-02T08:15:39.710Z,18.71
2018-07-02T08:18:08.848Z,18.72
2018-07-02T08:20:37.875Z,18.80
2018-07-02T08:23:07.518Z,18.77
2018-07-02T08:25:36.938Z,18.82
2018-07-02T08:28:06.442Z,18.84
2018-07-02T08:30:35.499Z,18.85
2018-07-02T08:33:04.675Z,18.94
2018-07-02T08:35:34.540Z,19.05
2018-07-02T08:38:03.908Z,19.08
2018-07-02T08:40:32.970Z,19.09
2018-07-02T08:43:02.057Z,19.17
2018-07-02T08:45:31.085Z,19.29
2018-07-02T08:48:00.143Z,19.27
2018-07-02T08:50:29.197Z,19.28
2018-07-02T08:52:58.241Z,19.32
2018-07-02T08:55:27.418Z,19.34
2018-07-02T08:57:56.645Z,19.36
2018-07-02T09:00:25.724Z,19.47
2018-07-02T09:02:55.024Z,19.62
2018-07-02T09:05:24.562Z,19.70
2018-07-02T09:07:54.019Z,19.69
2018-07-02T09:10:23.147Z,19.76
2018-07-02T09:12:52.202Z,19.79
2018-07-02T09:15:21.659Z,19.87
2018-07-02T09:17:51.219Z,19.91
2018-07-02T09:20:21.554Z,20.05
2018-07-02T09:22:51.289Z,20.12
2018-07-02T09:25:21.809Z,20.14
2018-07-02T09:27:51.618Z,20.14
2018-07-02T09:30:21.635Z,20.07
2018-07-02T09:32:52.621Z,20.12
2018-07-02T09:35:21.932Z,20.24
2018-07-02T09:37:51.401Z,20.35
2018-07-02T09:40:21.728Z,20.47
2018-07-02T09:42:51.602Z,20.38
2018-07-02T09:45:21.969Z,20.48
2018-07-02T09:47:51.464Z,20.57
2018-07-02T09:50:21.797Z,20.61
2018-07-02T09:52:51.573Z,20.65
2018-07-02T09:55:22.006Z,20.78
2018-07-02T09:57:51.931Z,20.78
2018-07-02T10:00:21.863Z,20.92
2018-07-02T10:02:51.771Z,20.98
2018-07-02T10:05:22.022Z,20.99
2018-07-02T10:07:52.014Z,21.07
2018-07-02T10:10:22.865Z,21.07
2018-07-02T10:12:52.193Z,21.09
2018-07-02T10:15:22.173Z,21.20
2018-07-02T10:17:51.960Z,21.21
2018-07-02T10:20:22.041Z,21.23
2018-07-02T10:22:51.900Z,21.34
2018-07-02T10:25:21.868Z,21.43
2018-07-02T10:27:53.122Z,21.39
2018-07-02T10:30:22.191Z,21.39
2018-07-02T10:42:32.154Z,21.39
2018-07-02T10:45:03.483Z,21.63
2018-07-02T10:47:33.049Z,21.75
2018-07-02T10:50:02.165Z,21.80
2018-07-02T10:52:31.197Z,21.88
2018-07-02T10:55:00.478Z,21.89
2018-07-02T10:57:29.859Z,21.91
2018-07-02T10:59:59.615Z,21.95
2018-07-02T11:02:28.849Z,21.91
2018-07-02T11:04:57.998Z,22.07
2018-07-02T11:07:27.484Z,22.05
2018-07-02T11:09:56.573Z,22.03
2018-07-02T11:12:25.618Z,22.07
2018-07-02T11:14:54.665Z,22.11
2018-07-02T11:17:23.712Z,22.12
2018-07-02T11:19:52.777Z,22.19
2018-07-02T11:22:22.305Z,22.22
2018-07-02T11:24:52.253Z,22.28
2018-07-02T11:27:22.366Z,22.36
2018-07-02T11:29:52.453Z,22.40
2018-07-02T11:32:22.331Z,22.48
2018-07-02T11:34:52.459Z,22.47
2018-07-02T11:37:22.423Z,22.51
2018-07-02T11:39:52.505Z,22.65
2018-07-02T11:42:22.434Z,22.61
2018-07-02T11:44:52.531Z,22.68
2018-07-02T11:47:22.441Z,22.75
2018-07-02T12:12:27.276Z,22.66
2018-07-02T12:14:57.557Z,23.18
2018-07-02T12:17:26.661Z,23.14
2018-07-02T12:19:55.678Z,22.94
2018-07-02T12:22:25.038Z,23.05
2018-07-02T12:24:54.092Z,23.17
2018-07-02T12:27:23.196Z,23.35
2018-07-02T12:29:52.856Z,23.55
2018-07-02T12:32:23.013Z,23.65
2018-07-02T12:34:52.869Z,23.80
2018-07-02T12:37:21.978Z,23.69
2018-07-02T12:39:51.186Z,23.59
2018-07-02T12:42:20.228Z,23.76
2018-07-02T12:44:49.273Z,23.88
2018-07-02T12:47:18.337Z,24.03
2018-07-02T12:49:47.439Z,24.12
2018-07-02T12:52:16.508Z,24.20
2018-07-02T12:54:45.566Z,24.18
2018-07-02T12:57:14.594Z,24.20
2018-07-02T12:59:43.665Z,24.19
2018-07-02T13:02:12.722Z,24.15
2018-07-02T13:04:41.809Z,24.22
2018-07-02T13:07:10.880Z,24.31
2018-07-02T13:09:40.208Z,24.44
2018-07-02T13:12:09.284Z,24.67
2018-07-02T13:14:38.310Z,24.75
2018-07-02T13:17:07.529Z,24.94
2018-07-02T13:19:36.613Z,25.07
2018-07-02T13:22:05.662Z,25.22
2018-07-02T13:24:34.759Z,25.28
2018-07-02T13:27:03.924Z,25.33
2018-07-02T13:29:33.009Z,25.34
2018-07-02T13:32:02.072Z,25.39
2018-07-02T13:34:31.217Z,25.59
2018-07-02T13:37:00.284Z,25.69
2018-07-02T13:39:29.410Z,25.74
2018-07-02T13:41:58.506Z,25.80
2018-07-02T13:44:27.493Z,25.97
2018-07-02T13:46:56.573Z,26.14
2018-07-02T13:49:26.639Z,26.24
2018-07-02T13:51:56.108Z,26.49
2018-07-02T13:54:25.201Z,26.69
2018-07-02T13:56:54.262Z,26.77
2018-07-02T13:59:23.702Z,26.73
2018-07-02T14:01:53.583Z,26.92
2018-07-02T14:04:23.665Z,27.52
2018-07-02T14:06:53.730Z,27.96
2018-07-02T14:09:23.628Z,28.16
2018-07-02T14:11:52.652Z,28.68
2018-07-02T14:14:21.773Z,29.32
2018-07-02T14:16:50.831Z,29.76
2018-07-02T14:19:20.972Z,30.08
2018-07-02T14:21:50.078Z,29.99
2018-07-02T14:24:19.555Z,30.11
2018-07-02T14:26:48.845Z,30.57
2018-07-02T14:29:18.276Z,31.14
2018-07-02T14:31:47.308Z,31.12
2018-07-02T14:34:16.482Z,31.49
2018-07-02T14:36:45.953Z,31.45
2018-07-02T14:39:15.076Z,31.18
2018-07-02T14:41:44.206Z,31.41
2018-07-02T14:44:13.304Z,32.01
2018-07-02T14:46:43.048Z,32.27
2018-07-02T14:49:12.144Z,32.60
2018-07-02T14:51:41.857Z,32.57
2018-07-02T14:54:10.967Z,32.70
2018-07-02T14:56:40.051Z,32.54
2018-07-02T14:59:09.538Z,32.51
2018-07-02T15:01:38.585Z,32.66
2018-07-02T15:04:07.720Z,32.81
2018-07-02T15:06:36.807Z,32.62
2018-07-02T15:09:09.820Z,32.79
2018-07-02T15:11:39.184Z,32.74
2018-07-02T15:14:08.882Z,32.41
2018-07-02T15:16:37.974Z,32.11
2018-07-02T15:19:07.157Z,32.04
2018-07-02T15:21:36.306Z,32.23
2018-07-02T15:24:05.536Z,32.41
2018-07-02T15:26:34.748Z,32.55
2018-07-02T15:29:04.126Z,32.68
2018-07-02T15:31:33.526Z,32.91
2018-07-02T15:34:03.224Z,33.16
2018-07-02T15:36:32.916Z,33.30
2018-07-02T15:39:02.005Z,33.21
2018-07-02T15:41:31.537Z,32.88
2018-07-02T15:44:01.034Z,32.57
2018-07-02T15:46:31.530Z,32.65
2018-07-02T15:49:00.839Z,32.49
2018-07-02T15:51:29.935Z,32.47
2018-07-02T15:53:59.225Z,32.43
2018-07-02T15:56:28.586Z,32.47
2018-07-02T15:58:57.683Z,31.83
2018-07-02T16:01:27.231Z,31.53
2018-07-02T16:03:56.317Z,31.53
2018-07-02T16:06:25.384Z,31.59
2018-07-02T16:08:55.156Z,31.58
2018-07-02T16:11:25.085Z,31.55
2018-07-02T16:13:55.123Z,31.17
2018-07-02T16:16:24.841Z,30.69
2018-07-02T16:18:54.966Z,30.74
2018-07-02T16:21:25.257Z,30.62
2018-07-02T16:23:54.975Z,30.31
2018-07-02T16:26:24.939Z,29.86
2018-07-02T16:28:55.409Z,29.48
2018-07-02T16:31:25.252Z,28.99
2018-07-02T16:33:55.079Z,28.59
2018-07-02T16:36:25.137Z,28.37
2018-07-02T16:38:55.130Z,28.13
2018-07-02T16:41:25.354Z,27.77
2018-07-02T16:43:55.315Z,27.31
2018-07-02T16:46:25.190Z,27.04
2018-07-02T16:48:55.618Z,26.95
2018-07-02T16:51:25.996Z,26.81
2018-07-02T16:53:55.333Z,26.39
2018-07-02T16:56:25.387Z,26.20
2018-07-02T16:58:55.747Z,26.08
2018-07-02T17:01:25.556Z,25.93
2018-07-02T17:03:55.249Z,25.73
2018-07-02T17:28:59.606Z,25.57
2018-07-02T17:31:28.933Z,24.35
2018-07-02T17:33:58.166Z,24.27
2018-07-02T17:36:27.291Z,24.17
2018-07-02T17:38:56.344Z,24.11
2018-07-02T18:01:27.967Z,23.39
2018-07-02T18:07:35.255Z,23.20
2018-07-02T18:22:09.383Z,22.86
2018-07-02T18:24:38.575Z,22.82
2018-07-02T18:27:07.666Z,22.78
2018-07-02T18:29:36.790Z,22.75
2018-07-02T18:32:05.959Z,22.69
2018-07-02T18:34:35.051Z,22.60
2018-07-02T18:37:04.449Z,22.52
2018-07-02T18:39:33.566Z,22.44
2018-07-02T18:42:02.730Z,22.42
2018-07-02T18:44:31.826Z,22.36
2018-07-02T18:47:00.934Z,22.28
2018-07-02T18:49:30.006Z,22.21
2018-07-02T18:51:59.074Z,22.16
2018-07-02T18:54:28.251Z,22.09
2018-07-02T18:56:57.347Z,22.02
2018-07-02T18:59:26.607Z,21.93
2018-07-02T19:01:56.501Z,21.86
2018-07-02T19:04:26.317Z,21.78
2018-07-02T19:06:56.433Z,21.74
2018-07-02T19:09:26.807Z,21.68
2018-07-02T19:11:56.725Z,21.59
2018-07-02T19:14:26.605Z,21.50
2018-07-02T19:16:56.494Z,21.40
2018-07-02T19:19:26.749Z,21.31
2018-07-02T19:21:56.625Z,21.18
2018-07-02T19:24:26.708Z,21.07
2018-07-02T19:26:56.546Z,20.96
2018-07-02T19:29:26.863Z,20.83
2018-07-02T19:31:59.763Z,20.67
2018-07-02T19:34:28.921Z,20.45
2018-07-02T19:36:58.038Z,20.32
2018-07-02T19:39:27.125Z,20.18
2018-07-02T19:41:56.717Z,20.07
2018-07-02T19:44:26.781Z,19.96
2018-07-02T19:46:56.915Z,19.92
2018-07-02T19:49:26.826Z,19.80
2018-07-02T19:51:57.029Z,19.69
2018-07-02T19:54:26.788Z,19.58
2018-07-02T19:56:55.848Z,19.50
2018-07-02T19:59:25.012Z,19.41
2018-07-02T20:01:54.056Z,19.31
2018-07-02T20:04:23.143Z,19.22
2018-07-02T20:06:52.304Z,19.18
2018-07-02T20:09:21.327Z,19.11
2018-07-02T20:11:50.414Z,19.05
2018-07-02T20:14:19.479Z,18.97
2018-07-02T20:16:48.884Z,18.87
2018-07-02T20:19:18.371Z,18.77
2018-07-02T20:21:47.450Z,18.65
2018-07-02T20:24:16.535Z,18.57
2018-07-02T20:26:45.667Z,18.49
2018-07-02T20:29:14.793Z,18.41
2018-07-02T20:31:43.954Z,18.29
2018-07-02T20:34:13.028Z,18.18
2018-07-02T20:36:42.157Z,18.12
2018-07-02T20:39:12.411Z,18.09
2018-07-02T20:41:41.905Z,18.05
2018-07-02T20:44:10.990Z,18.03
2018-07-02T20:46:40.105Z,17.93
2018-07-02T20:49:09.195Z,17.91
2018-07-02T20:51:38.243Z,17.82
2018-07-02T20:54:07.794Z,17.73
2018-07-02T20:56:36.917Z,17.59
2018-07-02T20:59:06.011Z,17.55
2018-07-02T21:01:35.554Z,17.51
2018-07-02T21:04:05.226Z,17.46
2018-07-02T21:06:34.356Z,17.42
2018-07-02T21:09:04.655Z,17.35
2018-07-02T21:11:33.707Z,17.23
2018-07-02T21:14:02.964Z,17.18
2018-07-02T21:16:32.056Z,17.11
2018-07-02T21:19:01.137Z,17.05
2018-07-02T21:21:30.216Z,16.98
2018-07-02T21:23:59.486Z,16.92
2018-07-02T21:26:28.590Z,16.89
2018-07-02T21:28:57.789Z,16.82
2018-07-02T21:31:27.926Z,16.78
2018-07-02T21:33:57.756Z,16.75
2018-07-02T21:36:27.780Z,16.70
2018-07-02T21:38:58.063Z,16.61
2018-07-02T21:41:28.044Z,16.56
2018-07-02T21:43:57.911Z,16.51
2018-07-02T21:46:28.162Z,16.41
2018-07-02T21:48:57.761Z,16.31
2018-07-02T21:51:28.070Z,16.21
2018-07-02T21:53:57.979Z,16.13
2018-07-02T21:56:28.178Z,16.02
2018-07-02T21:58:57.910Z,15.98
2018-07-02T22:01:28.068Z,15.99
2018-07-02T22:03:57.877Z,16.02
2018-07-02T22:06:28.414Z,16.04
2018-07-02T22:08:57.906Z,16.07
2018-07-02T22:11:28.230Z,16.04
2018-07-02T22:13:58.058Z,16.02
2018-07-02T22:16:28.082Z,15.98
2018-07-02T22:18:58.324Z,15.93
2018-07-02T22:21:28.302Z,15.92
2018-07-02T22:23:58.535Z,15.89
2018-07-02T22:26:31.982Z,15.82
2018-07-02T22:29:01.202Z,15.80
2018-07-02T22:31:30.231Z,15.76
2018-07-02T22:33:59.571Z,15.76
2018-07-02T22:36:29.230Z,15.72
2018-07-02T22:38:58.939Z,15.74
2018-07-02T22:41:29.052Z,15.67
2018-07-02T22:43:58.549Z,15.64
2018-07-02T22:46:28.573Z,15.65
2018-07-02T22:48:58.262Z,15.58
2018-07-02T22:51:28.364Z,15.48
2018-07-02T22:53:58.719Z,15.38
2018-07-02T22:56:28.658Z,15.34
2018-07-02T22:58:58.661Z,15.32
2018-07-02T23:01:28.848Z,15.27
2018-07-02T23:03:58.538Z,15.21
2018-07-02T23:06:28.649Z,15.17
2018-07-02T23:08:58.748Z,15.13
2018-07-02T23:11:28.960Z,15.05
2018-07-02T23:13:58.573Z,14.94
2018-07-02T23:16:28.884Z,14.87
2018-07-02T23:18:58.608Z,14.82
2018-07-02T23:40:47.952Z,14.79
2018-07-02T23:43:17.039Z,14.38
2018-07-02T23:45:46.094Z,14.35
2018-07-02T23:48:15.144Z,14.36
2018-07-02T23:50:44.576Z,14.35
2018-07-02T23:53:13.753Z,14.30
2018-07-02T23:55:43.171Z,14.25
2018-07-02T23:58:12.308Z,14.16
